sensor_id;sensor_type;location;lat;lon;timestamp;pressure;altitude;pressure_sealevel;temperature;humidity
64192;BME280;50497;50.720;-2.084;2023-04-04T00:01:08;103014.38;;;2.96;100.00
64192;BME280;50497;50.720;-2.084;2023-04-04T00:03:34;102986.75;;;2.81;100.00
64192;BME280;50497;50.720;-2.084;2023-04-04T00:06:08;103011.72;;;2.95;100.00
64192;BME280;50497;50.720;-2.084;2023-04-04T00:08:37;102982.31;;;2.80;100.00
64192;BME280;50497;50.720;-2.084;2023-04-04T00:11:07;103019.50;;;2.89;100.00
64192;BME280;50497;50.720;-2.084;2023-04-04T00:13:41;103019.44;;;2.84;100.00
64192;BME280;50497;50.720;-2.084;2023-04-04T00:16:11;103025.34;;;2.72;100.00
64192;BME280;50497;50.720;-2.084;2023-04-04T00:18:40;103015.59;;;2.70;100.00
64192;BME280;50497;50.720;-2.084;2023-04-04T00:21:14;103014.63;;;2.66;100.00
64192;BME280;50497;50.720;-2.084;2023-04-04T00:23:39;103012.88;;;2.67;100.00
64192;BME280;50497;50.720;-2.084;2023-04-04T00:26:04;103007.69;;;2.71;100.00
64192;BME280;50497;50.720;-2.084;2023-04-04T00:28:30;103003.19;;;2.66;100.00
64192;BME280;50497;50.720;-2.084;2023-04-04T00:31:06;103005.72;;;2.61;100.00
64192;BME280;50497;50.720;-2.084;2023-04-04T00:33:35;103009.13;;;2.57;100.00
64192;BME280;50497;50.720;-2.084;2023-04-04T00:36:04;103008.88;;;2.45;100.00
64192;BME280;50497;50.720;-2.084;2023-04-04T00:38:30;103017.72;;;2.47;100.00
64192;BME280;50497;50.720;-2.084;2023-04-04T00:40:56;103014.91;;;2.40;100.00
64192;BME280;50497;50.720;-2.084;2023-04-04T00:43:26;102984.63;;;2.25;100.00
64192;BME280;50497;50.720;-2.084;2023-04-04T00:45:54;103008.53;;;2.29;100.00
64192;BME280;50497;50.720;-2.084;2023-04-04T00:48:19;103005.75;;;2.25;100.00
64192;BME280;50497;50.720;-2.084;2023-04-04T00:50:45;103011.84;;;2.22;100.00
64192;BME280;50497;50.720;-2.084;2023-04-04T00:53:18;103022.56;;;2.28;100.00
64192;BME280;50497;50.720;-2.084;2023-04-04T00:55:43;103012.81;;;2.26;100.00
64192;BME280;50497;50.720;-2.084;2023-04-04T00:58:14;103019.81;;;2.24;100.00
64192;BME280;50497;50.720;-2.084;2023-04-04T01:00:43;103014.38;;;2.16;100.00
64192;BME280;50497;50.720;-2.084;2023-04-04T01:03:09;103020.47;;;2.13;100.00
64192;BME280;50497;50.720;-2.084;2023-04-04T01:05:37;103013.31;;;2.09;100.00
64192;BME280;50497;50.720;-2.084;2023-04-04T01:08:06;103007.06;;;2.06;100.00
64192;BME280;50497;50.720;-2.084;2023-04-04T01:10:42;103014.00;;;2.02;100.00
64192;BME280;50497;50.720;-2.084;2023-04-04T01:13:07;103014.09;;;2.05;100.00
64192;BME280;50497;50.720;-2.084;2023-04-04T01:15:39;102988.13;;;1.87;100.00
64192;BME280;50497;50.720;-2.084;2023-04-04T01:18:12;103011.25;;;1.97;100.00
64192;BME280;50497;50.720;-2.084;2023-04-04T01:21:00;102982.94;;;1.90;100.00
64192;BME280;50497;50.720;-2.084;2023-04-04T01:23:35;103000.69;;;1.97;100.00
64192;BME280;50497;50.720;-2.084;2023-04-04T01:26:09;102997.47;;;2.09;100.00
64192;BME280;50497;50.720;-2.084;2023-04-04T01:28:35;102992.13;;;2.06;100.00
64192;BME280;50497;50.720;-2.084;2023-04-04T01:31:01;102998.22;;;2.03;100.00
64192;BME280;50497;50.720;-2.084;2023-04-04T01:33:42;103002.25;;;1.89;100.00
64192;BME280;50497;50.720;-2.084;2023-04-04T01:36:17;103011.81;;;1.84;100.00
64192;BME280;50497;50.720;-2.084;2023-04-04T01:39:01;103001.06;;;1.76;100.00
64192;BME280;50497;50.720;-2.084;2023-04-04T01:41:33;102965.25;;;1.53;100.00
64192;BME280;50497;50.720;-2.084;2023-04-04T01:43:59;102993.66;;;1.61;100.00
64192;BME280;50497;50.720;-2.084;2023-04-04T01:46:34;102991.84;;;1.60;100.00
64192;BME280;50497;50.720;-2.084;2023-04-04T01:49:01;102994.56;;;1.63;100.00
64192;BME280;50497;50.720;-2.084;2023-04-04T01:51:28;102953.47;;;1.38;100.00
64192;BME280;50497;50.720;-2.084;2023-04-04T01:53:56;102983.00;;;1.58;100.00
64192;BME280;50497;50.720;-2.084;2023-04-04T01:56:24;102955.28;;;1.41;100.00
64192;BME280;50497;50.720;-2.084;2023-04-04T01:58:50;102983.59;;;1.46;100.00
64192;BME280;50497;50.720;-2.084;2023-04-04T02:01:16;102994.81;;;1.39;100.00
64192;BME280;50497;50.720;-2.084;2023-04-04T02:03:41;102966.22;;;1.23;100.00
64192;BME280;50497;50.720;-2.084;2023-04-04T02:06:11;102986.06;;;1.40;100.00
64192;BME280;50497;50.720;-2.084;2023-04-04T02:08:37;102987.09;;;1.47;100.00
64192;BME280;50497;50.720;-2.084;2023-04-04T02:11:06;102981.56;;;1.38;100.00
64192;BME280;50497;50.720;-2.084;2023-04-04T02:13:33;102986.72;;;1.32;100.00
64192;BME280;50497;50.720;-2.084;2023-04-04T02:16:01;102994.59;;;1.30;100.00
64192;BME280;50497;50.720;-2.084;2023-04-04T02:18:29;102952.25;;;1.25;100.00
64192;BME280;50497;50.720;-2.084;2023-04-04T02:20:55;102947.06;;;1.28;100.00
64192;BME280;50497;50.720;-2.084;2023-04-04T02:23:25;102974.66;;;1.41;100.00
64192;BME280;50497;50.720;-2.084;2023-04-04T02:25:50;102952.16;;;1.22;100.00
64192;BME280;50497;50.720;-2.084;2023-04-04T02:28:18;102980.91;;;1.12;100.00
64192;BME280;50497;50.720;-2.084;2023-04-04T02:30:45;102974.75;;;1.13;100.00
64192;BME280;50497;50.720;-2.084;2023-04-04T02:33:13;102976.53;;;1.14;100.00
64192;BME280;50497;50.720;-2.084;2023-04-04T02:35:46;102976.06;;;1.28;100.00
64192;BME280;50497;50.720;-2.084;2023-04-04T02:38:18;102964.75;;;1.33;100.00
64192;BME280;50497;50.720;-2.084;2023-04-04T02:40:48;102937.94;;;1.16;100.00
64192;BME280;50497;50.720;-2.084;2023-04-04T02:43:14;102960.25;;;1.28;100.00
64192;BME280;50497;50.720;-2.084;2023-04-04T02:45:44;102965.97;;;1.12;100.00
64192;BME280;50497;50.720;-2.084;2023-04-04T02:48:11;102969.38;;;1.08;100.00
64192;BME280;50497;50.720;-2.084;2023-04-04T02:50:49;102969.34;;;1.06;100.00
64192;BME280;50497;50.720;-2.084;2023-04-04T02:53:20;102964.00;;;1.05;100.00
64192;BME280;50497;50.720;-2.084;2023-04-04T02:55:50;102936.09;;;0.81;100.00
64192;BME280;50497;50.720;-2.084;2023-04-04T02:58:15;102961.94;;;0.95;100.00
64192;BME280;50497;50.720;-2.084;2023-04-04T03:00:44;102971.22;;;0.80;100.00
64192;BME280;50497;50.720;-2.084;2023-04-04T03:03:15;102970.44;;;0.84;100.00
64192;BME280;50497;50.720;-2.084;2023-04-04T03:05:40;102962.94;;;0.98;100.00
64192;BME280;50497;50.720;-2.084;2023-04-04T03:08:06;102951.13;;;0.84;100.00
64192;BME280;50497;50.720;-2.084;2023-04-04T03:10:33;102958.97;;;0.82;100.00
64192;BME280;50497;50.720;-2.084;2023-04-04T03:13:02;102958.03;;;0.80;100.00
64192;BME280;50497;50.720;-2.084;2023-04-04T03:15:32;102954.38;;;0.75;100.00
64192;BME280;50497;50.720;-2.084;2023-04-04T03:18:03;102957.63;;;0.97;100.00
64192;BME280;50497;50.720;-2.084;2023-04-04T03:20:35;102950.66;;;0.99;100.00
64192;BME280;50497;50.720;-2.084;2023-04-04T03:23:01;102953.34;;;1.00;100.00
64192;BME280;50497;50.720;-2.084;2023-04-04T03:25:28;102946.13;;;0.93;100.00
64192;BME280;50497;50.720;-2.084;2023-04-04T03:27:53;102949.06;;;0.73;100.00
64192;BME280;50497;50.720;-2.084;2023-04-04T03:30:19;102935.75;;;0.69;100.00
64192;BME280;50497;50.720;-2.084;2023-04-04T03:32:48;102941.97;;;0.71;100.00
64192;BME280;50497;50.720;-2.084;2023-04-04T03:35:21;102947.13;;;0.68;100.00
64192;BME280;50497;50.720;-2.084;2023-04-04T03:37:49;102936.50;;;0.63;100.00
64192;BME280;50497;50.720;-2.084;2023-04-04T03:40:21;102944.34;;;0.62;100.00
64192;BME280;50497;50.720;-2.084;2023-04-04T03:42:47;102915.66;;;0.42;100.00
64192;BME280;50497;50.720;-2.084;2023-04-04T03:45:22;102920.94;;;0.42;100.00
64192;BME280;50497;50.720;-2.084;2023-04-04T03:47:48;102924.06;;;0.29;100.00
64192;BME280;50497;50.720;-2.084;2023-04-04T03:50:18;102938.06;;;0.58;100.00
64192;BME280;50497;50.720;-2.084;2023-04-04T03:52:45;102939.97;;;0.62;100.00
64192;BME280;50497;50.720;-2.084;2023-04-04T03:55:15;102930.00;;;0.52;100.00
64192;BME280;50497;50.720;-2.084;2023-04-04T03:57:41;102934.44;;;0.54;100.00
64192;BME280;50497;50.720;-2.084;2023-04-04T04:00:08;102941.56;;;0.57;100.00
64192;BME280;50497;50.720;-2.084;2023-04-04T04:02:35;102929.88;;;0.47;100.00
64192;BME280;50497;50.720;-2.084;2023-04-04T04:05:03;102946.78;;;0.55;100.00
64192;BME280;50497;50.720;-2.084;2023-04-04T04:07:36;102942.16;;;0.47;100.00
64192;BME280;50497;50.720;-2.084;2023-04-04T04:10:02;102918.88;;;0.32;100.00
64192;BME280;50497;50.720;-2.084;2023-04-04T04:12:32;102941.63;;;0.30;100.00
64192;BME280;50497;50.720;-2.084;2023-04-04T04:15:01;102951.78;;;0.17;100.00
64192;BME280;50497;50.720;-2.084;2023-04-04T04:17:26;102946.34;;;0.40;100.00
64192;BME280;50497;50.720;-2.084;2023-04-04T04:20:01;102943.50;;;0.34;100.00
64192;BME280;50497;50.720;-2.084;2023-04-04T04:22:33;102946.88;;;0.28;100.00
64192;BME280;50497;50.720;-2.084;2023-04-04T04:25:02;102912.41;;;-0.08;100.00
64192;BME280;50497;50.720;-2.084;2023-04-04T04:27:28;102949.63;;;0.04;100.00
64192;BME280;50497;50.720;-2.084;2023-04-04T04:29:58;102948.84;;;0.08;100.00
64192;BME280;50497;50.720;-2.084;2023-04-04T04:32:28;102942.66;;;0.06;100.00
64192;BME280;50497;50.720;-2.084;2023-04-04T04:34:59;102940.69;;;-0.01;100.00
64192;BME280;50497;50.720;-2.084;2023-04-04T04:37:29;102954.81;;;0.03;100.00
64192;BME280;50497;50.720;-2.084;2023-04-04T04:39:55;102941.34;;;-0.08;100.00
64192;BME280;50497;50.720;-2.084;2023-04-04T04:42:24;102913.78;;;-0.20;100.00
64192;BME280;50497;50.720;-2.084;2023-04-04T04:44:50;102945.84;;;-0.04;100.00
64192;BME280;50497;50.720;-2.084;2023-04-04T04:47:20;102938.78;;;-0.05;100.00
64192;BME280;50497;50.720;-2.084;2023-04-04T04:49:52;102937.13;;;-0.03;100.00
64192;BME280;50497;50.720;-2.084;2023-04-04T04:52:17;102934.28;;;-0.09;100.00
64192;BME280;50497;50.720;-2.084;2023-04-04T04:54:47;102898.50;;;-0.31;100.00
64192;BME280;50497;50.720;-2.084;2023-04-04T04:57:14;102935.09;;;-0.10;100.00
64192;BME280;50497;50.720;-2.084;2023-04-04T04:59:39;102936.66;;;-0.17;100.00
64192;BME280;50497;50.720;-2.084;2023-04-04T05:02:08;102931.53;;;-0.12;100.00
64192;BME280;50497;50.720;-2.084;2023-04-04T05:04:41;102903.72;;;-0.33;100.00
64192;BME280;50497;50.720;-2.084;2023-04-04T05:07:11;102929.06;;;-0.08;100.00
64192;BME280;50497;50.720;-2.084;2023-04-04T05:09:37;102917.09;;;-0.25;100.00
64192;BME280;50497;50.720;-2.084;2023-04-04T05:12:04;102933.78;;;-0.25;100.00
64192;BME280;50497;50.720;-2.084;2023-04-04T05:14:30;102933.25;;;-0.14;100.00
64192;BME280;50497;50.720;-2.084;2023-04-04T05:16:55;102931.69;;;-0.08;100.00
64192;BME280;50497;50.720;-2.084;2023-04-04T05:19:27;102937.56;;;-0.16;100.00
64192;BME280;50497;50.720;-2.084;2023-04-04T05:22:05;102928.53;;;-0.25;100.00
64192;BME280;50497;50.720;-2.084;2023-04-04T05:24:33;102935.22;;;-0.34;100.00
64192;BME280;50497;50.720;-2.084;2023-04-04T05:26:59;102939.56;;;-0.36;100.00
64192;BME280;50497;50.720;-2.084;2023-04-04T05:29:24;102931.78;;;-0.32;100.00
64192;BME280;50497;50.720;-2.084;2023-04-04T05:31:50;102934.47;;;-0.30;100.00
64192;BME280;50497;50.720;-2.084;2023-04-04T05:34:19;102925.84;;;-0.26;100.00
64192;BME280;50497;50.720;-2.084;2023-04-04T05:36:49;102941.69;;;-0.25;100.00
64192;BME280;50497;50.720;-2.084;2023-04-04T05:39:14;102945.59;;;-0.39;100.00
64192;BME280;50497;50.720;-2.084;2023-04-04T05:41:40;102943.56;;;-0.48;100.00
64192;BME280;50497;50.720;-2.084;2023-04-04T05:44:09;102923.88;;;-0.59;100.00
64192;BME280;50497;50.720;-2.084;2023-04-04T05:46:35;102938.06;;;-0.54;100.00
64192;BME280;50497;50.720;-2.084;2023-04-04T05:49:01;102955.94;;;-0.44;100.00
64192;BME280;50497;50.720;-2.084;2023-04-04T05:51:30;102933.91;;;-0.47;100.00
64192;BME280;50497;50.720;-2.084;2023-04-04T05:53:55;102953.63;;;-0.34;100.00
64192;BME280;50497;50.720;-2.084;2023-04-04T05:56:27;102959.06;;;-0.28;100.00
64192;BME280;50497;50.720;-2.084;2023-04-04T05:58:53;102963.16;;;-0.38;100.00
64192;BME280;50497;50.720;-2.084;2023-04-04T06:01:22;102970.84;;;-0.44;100.00
64192;BME280;50497;50.720;-2.084;2023-04-04T06:03:52;102968.22;;;-0.44;100.00
64192;BME280;50497;50.720;-2.084;2023-04-04T06:06:23;102948.22;;;-0.39;100.00
64192;BME280;50497;50.720;-2.084;2023-04-04T06:08:55;102957.47;;;-0.25;100.00
64192;BME280;50497;50.720;-2.084;2023-04-04T06:11:33;102960.66;;;-0.33;100.00
64192;BME280;50497;50.720;-2.084;2023-04-04T06:13:59;102960.47;;;-0.40;100.00
64192;BME280;50497;50.720;-2.084;2023-04-04T06:16:29;102937.19;;;-0.54;100.00
64192;BME280;50497;50.720;-2.084;2023-04-04T06:19:04;102967.78;;;-0.31;100.00
64192;BME280;50497;50.720;-2.084;2023-04-04T06:21:31;102942.19;;;-0.36;100.00
64192;BME280;50497;50.720;-2.084;2023-04-04T06:24:00;102955.19;;;-0.14;100.00
64192;BME280;50497;50.720;-2.084;2023-04-04T06:26:32;102959.56;;;-0.14;100.00
64192;BME280;50497;50.720;-2.084;2023-04-04T06:28:57;102952.69;;;-0.09;100.00
64192;BME280;50497;50.720;-2.084;2023-04-04T06:31:29;102947.94;;;-0.21;100.00
64192;BME280;50497;50.720;-2.084;2023-04-04T06:33:56;102964.72;;;-0.17;100.00
64192;BME280;50497;50.720;-2.084;2023-04-04T06:36:30;102925.28;;;-0.16;100.00
64192;BME280;50497;50.720;-2.084;2023-04-04T06:38:59;102951.31;;;0.02;100.00
64192;BME280;50497;50.720;-2.084;2023-04-04T06:41:31;102963.53;;;0.00;100.00
64192;BME280;50497;50.720;-2.084;2023-04-04T06:43:57;102972.38;;;0.02;100.00
64192;BME280;50497;50.720;-2.084;2023-04-04T06:46:26;102976.91;;;0.08;100.00
64192;BME280;50497;50.720;-2.084;2023-04-04T06:48:51;102987.81;;;0.18;100.00
64192;BME280;50497;50.720;-2.084;2023-04-04T06:51:17;102956.41;;;-0.03;100.00
64192;BME280;50497;50.720;-2.084;2023-04-04T06:53:59;102985.16;;;0.18;100.00
64192;BME280;50497;50.720;-2.084;2023-04-04T06:56:25;102988.75;;;0.21;100.00
64192;BME280;50497;50.720;-2.084;2023-04-04T06:58:51;102989.97;;;0.32;100.00
64192;BME280;50497;50.720;-2.084;2023-04-04T07:01:21;102957.25;;;0.24;100.00
64192;BME280;50497;50.720;-2.084;2023-04-04T07:03:46;102986.19;;;0.52;100.00
64192;BME280;50497;50.720;-2.084;2023-04-04T07:06:18;102992.31;;;0.51;100.00
64192;BME280;50497;50.720;-2.084;2023-04-04T07:08:46;103003.00;;;0.56;100.00
64192;BME280;50497;50.720;-2.084;2023-04-04T07:11:17;102995.91;;;0.53;100.00
64192;BME280;50497;50.720;-2.084;2023-04-04T07:13:42;102985.22;;;0.79;100.00
64192;BME280;50497;50.720;-2.084;2023-04-04T07:16:08;102988.16;;;0.88;100.00
64192;BME280;50497;50.720;-2.084;2023-04-04T07:18:35;102984.44;;;0.82;100.00
64192;BME280;50497;50.720;-2.084;2023-04-04T07:21:08;102991.81;;;0.94;100.00
64192;BME280;50497;50.720;-2.084;2023-04-04T07:23:40;102970.06;;;1.02;100.00
64192;BME280;50497;50.720;-2.084;2023-04-04T07:26:20;102968.03;;;1.24;100.00
64192;BME280;50497;50.720;-2.084;2023-04-04T07:28:55;102969.97;;;1.31;100.00
64192;BME280;50497;50.720;-2.084;2023-04-04T07:31:22;102967.94;;;1.54;100.00
64192;BME280;50497;50.720;-2.084;2023-04-04T07:33:51;102973.00;;;1.80;100.00
64192;BME280;50497;50.720;-2.084;2023-04-04T07:36:23;102973.38;;;1.95;100.00
64192;BME280;50497;50.720;-2.084;2023-04-04T07:38:52;102969.66;;;2.25;100.00
64192;BME280;50497;50.720;-2.084;2023-04-04T07:41:20;102973.41;;;2.35;100.00
64192;BME280;50497;50.720;-2.084;2023-04-04T07:43:50;102979.19;;;2.56;100.00
64192;BME280;50497;50.720;-2.084;2023-04-04T07:46:16;102996.91;;;2.62;100.00
64192;BME280;50497;50.720;-2.084;2023-04-04T07:48:48;102970.22;;;2.50;100.00
64192;BME280;50497;50.720;-2.084;2023-04-04T07:51:14;103004.19;;;2.72;100.00
64192;BME280;50497;50.720;-2.084;2023-04-04T07:53:39;103007.94;;;2.84;100.00
64192;BME280;50497;50.720;-2.084;2023-04-04T07:56:04;103025.84;;;2.95;100.00
64192;BME280;50497;50.720;-2.084;2023-04-04T07:58:33;103017.13;;;3.47;100.00
64192;BME280;50497;50.720;-2.084;2023-04-04T08:01:00;103006.16;;;4.92;100.00
64192;BME280;50497;50.720;-2.084;2023-04-04T08:03:25;103028.75;;;6.26;100.00
64192;BME280;50497;50.720;-2.084;2023-04-04T08:05:51;103090.34;;;6.91;100.00
64192;BME280;50497;50.720;-2.084;2023-04-04T08:08:16;103211.56;;;8.10;100.00
64192;BME280;50497;50.720;-2.084;2023-04-04T08:10:45;103344.25;;;8.73;100.00
64192;BME280;50497;50.720;-2.084;2023-04-04T08:13:11;103394.97;;;8.62;100.00
64192;BME280;50497;50.720;-2.084;2023-04-04T08:15:37;103365.53;;;8.45;100.00
64192;BME280;50497;50.720;-2.084;2023-04-04T08:18:03;103306.81;;;9.80;100.00
64192;BME280;50497;50.720;-2.084;2023-04-04T08:20:28;103231.88;;;9.96;100.00
64192;BME280;50497;50.720;-2.084;2023-04-04T08:22:54;103154.41;;;9.82;100.00
64192;BME280;50497;50.720;-2.084;2023-04-04T08:25:20;103117.53;;;10.30;100.00
64192;BME280;50497;50.720;-2.084;2023-04-04T08:27:49;103057.66;;;10.44;100.00
64192;BME280;50497;50.720;-2.084;2023-04-04T08:30:23;103002.56;;;10.21;100.00
64192;BME280;50497;50.720;-2.084;2023-04-04T08:32:48;102954.09;;;11.19;100.00
64192;BME280;50497;50.720;-2.084;2023-04-04T08:35:14;102992.94;;;12.08;100.00
64192;BME280;50497;50.720;-2.084;2023-04-04T08:37:47;102891.50;;;11.79;100.00
64192;BME280;50497;50.720;-2.084;2023-04-04T08:40:12;102788.69;;;12.64;100.00
64192;BME280;50497;50.720;-2.084;2023-04-04T08:42:40;102603.03;;;12.76;100.00
64192;BME280;50497;50.720;-2.084;2023-04-04T08:45:10;102523.13;;;12.85;100.00
64192;BME280;50497;50.720;-2.084;2023-04-04T08:47:37;102513.72;;;13.33;100.00
64192;BME280;50497;50.720;-2.084;2023-04-04T08:50:07;102767.72;;;13.51;100.00
64192;BME280;50497;50.720;-2.084;2023-04-04T08:52:36;102871.63;;;13.55;100.00
64192;BME280;50497;50.720;-2.084;2023-04-04T08:55:09;102752.28;;;14.78;100.00
64192;BME280;50497;50.720;-2.084;2023-04-04T08:57:39;102714.16;;;13.08;100.00
64192;BME280;50497;50.720;-2.084;2023-04-04T09:00:05;102725.22;;;14.53;100.00
64192;BME280;50497;50.720;-2.084;2023-04-04T09:02:33;102730.09;;;14.12;100.00
64192;BME280;50497;50.720;-2.084;2023-04-04T09:05:00;102752.94;;;14.56;100.00
64192;BME280;50497;50.720;-2.084;2023-04-04T09:07:28;102693.53;;;15.88;100.00
64192;BME280;50497;50.720;-2.084;2023-04-04T09:09:58;102796.97;;;14.26;100.00
64192;BME280;50497;50.720;-2.084;2023-04-04T09:12:31;102877.13;;;15.60;100.00
64192;BME280;50497;50.720;-2.084;2023-04-04T09:15:01;102744.84;;;15.38;100.00
64192;BME280;50497;50.720;-2.084;2023-04-04T09:17:30;102796.03;;;14.86;100.00
64192;BME280;50497;50.720;-2.084;2023-04-04T09:20:41;102755.28;;;14.95;100.00
64192;BME280;50497;50.720;-2.084;2023-04-04T09:22:44;102736.69;;;16.58;100.00
64192;BME280;50497;50.720;-2.084;2023-04-04T09:25:10;102740.25;;;15.65;100.00
64192;BME280;50497;50.720;-2.084;2023-04-04T09:27:35;102744.09;;;16.75;100.00
64192;BME280;50497;50.720;-2.084;2023-04-04T09:30:01;102732.88;;;15.70;100.00
64192;BME280;50497;50.720;-2.084;2023-04-04T09:32:27;102754.03;;;16.06;100.00
64192;BME280;50497;50.720;-2.084;2023-04-04T09:34:56;102713.47;;;16.54;100.00
64192;BME280;50497;50.720;-2.084;2023-04-04T09:37:22;102716.44;;;17.72;100.00
64192;BME280;50497;50.720;-2.084;2023-04-04T09:39:47;102748.13;;;15.21;100.00
64192;BME280;50497;50.720;-2.084;2023-04-04T09:42:13;102736.56;;;16.61;100.00
64192;BME280;50497;50.720;-2.084;2023-04-04T09:44:39;102760.28;;;14.51;100.00
64192;BME280;50497;50.720;-2.084;2023-04-04T09:47:26;102759.41;;;16.30;100.00
64192;BME280;50497;50.720;-2.084;2023-04-04T09:49:56;102730.72;;;16.50;100.00
64192;BME280;50497;50.720;-2.084;2023-04-04T09:52:22;102747.69;;;16.53;99.39
64192;BME280;50497;50.720;-2.084;2023-04-04T09:54:54;102753.19;;;17.99;94.98
64192;BME280;50497;50.720;-2.084;2023-04-04T09:57:25;102727.41;;;17.30;96.14
64192;BME280;50497;50.720;-2.084;2023-04-04T09:59:51;102758.19;;;15.66;100.00
64192;BME280;50497;50.720;-2.084;2023-04-04T10:02:16;102741.84;;;18.28;91.65
64192;BME280;50497;50.720;-2.084;2023-04-04T10:04:43;102745.97;;;17.17;90.98
64192;BME280;50497;50.720;-2.084;2023-04-04T10:07:14;102742.09;;;14.59;90.61
64192;BME280;50497;50.720;-2.084;2023-04-04T10:09:45;102744.91;;;17.81;81.33
64192;BME280;50497;50.720;-2.084;2023-04-04T10:12:11;102739.16;;;16.64;96.73
64192;BME280;50497;50.720;-2.084;2023-04-04T10:14:37;102723.28;;;17.61;73.91
64192;BME280;50497;50.720;-2.084;2023-04-04T10:17:09;102744.69;;;18.25;73.39
64192;BME280;50497;50.720;-2.084;2023-04-04T10:19:40;102721.25;;;18.05;74.30
64192;BME280;50497;50.720;-2.084;2023-04-04T10:22:07;102753.53;;;19.21;78.68
64192;BME280;50497;50.720;-2.084;2023-04-04T10:24:34;102747.66;;;18.57;78.59
64192;BME280;50497;50.720;-2.084;2023-04-04T10:27:00;102743.75;;;19.52;59.34
64192;BME280;50497;50.720;-2.084;2023-04-04T10:29:29;102721.91;;;19.88;63.24
64192;BME280;50497;50.720;-2.084;2023-04-04T10:32:04;102740.56;;;18.36;78.12
64192;BME280;50497;50.720;-2.084;2023-04-04T10:34:56;102735.50;;;19.88;71.35
64192;BME280;50497;50.720;-2.084;2023-04-04T10:37:31;102749.28;;;18.42;61.71
64192;BME280;50497;50.720;-2.084;2023-04-04T10:40:09;102746.06;;;19.60;63.62
64192;BME280;50497;50.720;-2.084;2023-04-04T10:42:46;102742.81;;;19.00;83.64
64192;BME280;50497;50.720;-2.084;2023-04-04T10:45:16;102754.22;;;16.93;84.25
64192;BME280;50497;50.720;-2.084;2023-04-04T10:47:44;102745.13;;;19.61;66.42
64192;BME280;50497;50.720;-2.084;2023-04-04T10:50:10;102749.44;;;18.76;71.39
64192;BME280;50497;50.720;-2.084;2023-04-04T10:52:41;102741.72;;;19.39;64.56
64192;BME280;50497;50.720;-2.084;2023-04-04T10:55:10;102745.34;;;17.72;89.17
64192;BME280;50497;50.720;-2.084;2023-04-04T10:57:40;102719.28;;;18.28;69.27
64192;BME280;50497;50.720;-2.084;2023-04-04T11:00:08;102738.53;;;18.22;74.12
64192;BME280;50497;50.720;-2.084;2023-04-04T11:02:49;102735.31;;;18.69;72.63
64192;BME280;50497;50.720;-2.084;2023-04-04T11:08:00;102732.13;;;20.64;57.21
64192;BME280;50497;50.720;-2.084;2023-04-04T11:10:42;102734.66;;;20.67;60.57
64192;BME280;50497;50.720;-2.084;2023-04-04T11:15:59;102739.22;;;21.58;53.98
64192;BME280;50497;50.720;-2.084;2023-04-04T11:18:46;102746.88;;;18.92;61.58
64192;BME280;50497;50.720;-2.084;2023-04-04T11:21:20;102759.56;;;17.36;67.06
64192;BME280;50497;50.720;-2.084;2023-04-04T11:28:53;102743.88;;;18.04;67.99
64192;BME280;50497;50.720;-2.084;2023-04-04T11:31:27;102712.56;;;18.54;80.52
64192;BME280;50497;50.720;-2.084;2023-04-04T11:42:05;102751.09;;;19.67;75.57
64192;BME280;50497;50.720;-2.084;2023-04-04T11:44:40;102733.66;;;19.89;56.22
64192;BME280;50497;50.720;-2.084;2023-04-04T11:49:41;102714.19;;;21.07;66.14
64192;BME280;50497;50.720;-2.084;2023-04-04T11:52:11;102726.13;;;20.10;62.14
64192;BME280;50497;50.720;-2.084;2023-04-04T11:54:39;102739.31;;;20.18;77.43
64192;BME280;50497;50.720;-2.084;2023-04-04T11:57:16;102722.78;;;21.15;55.09
64192;BME280;50497;50.720;-2.084;2023-04-04T11:59:43;102715.41;;;21.17;62.23
64192;BME280;50497;50.720;-2.084;2023-04-04T12:02:10;102695.53;;;20.70;57.44
64192;BME280;50497;50.720;-2.084;2023-04-04T12:04:39;102712.00;;;22.43;67.07
64192;BME280;50497;50.720;-2.084;2023-04-04T12:07:08;102715.53;;;20.69;76.02
64192;BME280;50497;50.720;-2.084;2023-04-04T12:09:35;102722.09;;;19.34;55.75
64192;BME280;50497;50.720;-2.084;2023-04-04T12:12:08;102716.63;;;19.52;77.89
64192;BME280;50497;50.720;-2.084;2023-04-04T12:14:36;102722.88;;;19.19;65.53
64192;BME280;50497;50.720;-2.084;2023-04-04T12:17:05;102698.34;;;20.37;56.28
64192;BME280;50497;50.720;-2.084;2023-04-04T12:19:39;102712.16;;;19.51;52.66
64192;BME280;50497;50.720;-2.084;2023-04-04T12:22:06;102693.25;;;18.79;79.78
64192;BME280;50497;50.720;-2.084;2023-04-04T12:24:39;102716.41;;;19.04;63.12
64192;BME280;50497;50.720;-2.084;2023-04-04T12:27:07;102705.50;;;18.33;73.44
64192;BME280;50497;50.720;-2.084;2023-04-04T12:29:33;102702.53;;;19.10;64.49
64192;BME280;50497;50.720;-2.084;2023-04-04T12:32:17;102702.81;;;20.22;72.21
64192;BME280;50497;50.720;-2.084;2023-04-04T12:34:59;102698.00;;;21.64;63.22
64192;BME280;50497;50.720;-2.084;2023-04-04T12:37:27;102677.75;;;20.17;44.83
64192;BME280;50497;50.720;-2.084;2023-04-04T12:39:54;102676.34;;;19.27;67.02
64192;BME280;50497;50.720;-2.084;2023-04-04T12:42:24;102700.53;;;20.30;74.32
64192;BME280;50497;50.720;-2.084;2023-04-04T12:44:51;102699.84;;;19.94;56.36
64192;BME280;50497;50.720;-2.084;2023-04-04T12:47:20;102699.78;;;18.39;70.93
64192;BME280;50497;50.720;-2.084;2023-04-04T12:49:48;102677.59;;;21.12;74.78
64192;BME280;50497;50.720;-2.084;2023-04-04T12:52:21;102673.53;;;21.34;46.18
64192;BME280;50497;50.720;-2.084;2023-04-04T12:54:48;102686.84;;;21.24;48.26
64192;BME280;50497;50.720;-2.084;2023-04-04T12:57:23;102680.03;;;20.08;41.60
64192;BME280;50497;50.720;-2.084;2023-04-04T12:59:53;102689.16;;;18.71;67.29
64192;BME280;50497;50.720;-2.084;2023-04-04T13:02:22;102686.41;;;19.25;46.57
64192;BME280;50497;50.720;-2.084;2023-04-04T13:04:52;102687.28;;;18.90;46.86
64192;BME280;50497;50.720;-2.084;2023-04-04T13:07:28;102669.25;;;20.07;53.72
64192;BME280;50497;50.720;-2.084;2023-04-04T13:09:56;102661.03;;;18.91;52.41